createdAt,value
2023-01-25T00:01:42.014Z,101956.50
2023-01-25T00:04:08.756Z,101956.78
2023-01-25T00:06:35.380Z,101959.22
2023-01-25T00:09:02.366Z,101958.66
2023-01-25T00:11:28.872Z,101964.97
2023-01-25T00:13:55.964Z,101959.00
2023-01-25T00:16:23.600Z,101956.47
2023-01-25T00:18:50.479Z,101964.06
2023-01-25T00:21:22.964Z,101964.81
2023-01-25T00:23:50.347Z,101966.69
2023-01-25T00:26:17.127Z,101958.47
2023-01-25T00:28:43.803Z,101948.59
2023-01-25T00:31:17.372Z,101948.78
2023-01-25T00:33:51.149Z,101943.28
2023-01-25T00:36:33.716Z,101940.44
2023-01-25T00:39:00.355Z,101942.97
2023-01-25T00:41:26.921Z,101934.38
2023-01-25T00:43:53.557Z,101937.00
2023-01-25T00:46:20.142Z,101938.66
2023-01-25T00:48:46.665Z,101942.31
2023-01-25T00:51:13.657Z,101928.91
2023-01-25T00:53:40.142Z,101919.59
2023-01-25T00:56:06.898Z,101919.50
2023-01-25T00:58:33.535Z,101921.22
2023-01-25T01:01:00.480Z,101922.97
2023-01-25T01:03:27.000Z,101913.94
2023-01-25T01:06:11.701Z,101916.31
2023-01-25T01:08:42.278Z,101918.34
2023-01-25T01:11:10.941Z,101925.53
2023-01-25T01:13:38.344Z,101915.06
2023-01-25T01:16:08.496Z,101915.31
2023-01-25T01:18:36.299Z,101916.53
2023-01-25T01:21:03.625Z,101913.88
2023-01-25T01:23:30.524Z,101909.44
2023-01-25T01:26:00.387Z,101913.03
2023-01-25T01:28:29.815Z,101916.78
2023-01-25T01:31:03.550Z,101915.06
2023-01-25T01:33:30.076Z,101917.28
2023-01-25T01:35:57.180Z,101918.06
2023-01-25T01:38:24.131Z,101911.88
2023-01-25T01:40:50.915Z,101902.81
2023-01-25T01:43:19.997Z,101905.91
2023-01-25T01:45:49.571Z,101899.63
2023-01-25T01:48:31.091Z,101901.47
2023-01-25T01:51:00.766Z,101897.63
2023-01-25T01:53:27.982Z,101905.00
2023-01-25T01:55:57.527Z,101901.63
2023-01-25T01:58:24.303Z,101903.66
2023-01-25T02:00:50.959Z,101901.16
2023-01-25T02:03:17.976Z,101904.69
2023-01-25T02:05:44.405Z,101902.25
2023-01-25T02:08:14.951Z,101902.75
2023-01-25T02:10:42.739Z,101890.34
2023-01-25T02:13:09.254Z,101894.34
2023-01-25T02:15:42.283Z,101883.13
2023-01-25T02:18:10.614Z,101884.56
2023-01-25T02:20:41.327Z,101887.41
2023-01-25T02:23:31.706Z,101876.25
2023-01-25T02:26:00.913Z,101876.13
2023-01-25T02:28:38.134Z,101876.03
2023-01-25T02:31:04.832Z,101866.63
2023-01-25T02:33:31.416Z,101865.19
2023-01-25T02:36:19.539Z,101865.38
2023-01-25T02:38:51.245Z,101864.75
2023-01-25T02:41:23.792Z,101864.44
2023-01-25T02:43:50.315Z,101867.03
2023-01-25T02:46:33.451Z,101861.19
2023-01-25T02:49:01.120Z,101862.00
2023-01-25T02:51:30.237Z,101861.50
2023-01-25T02:53:57.275Z,101858.19
2023-01-25T02:56:24.490Z,101860.47
2023-01-25T02:58:51.455Z,101863.84
2023-01-25T03:01:18.347Z,101863.00
2023-01-25T03:03:44.891Z,101860.03
2023-01-25T03:06:11.693Z,101856.69
2023-01-25T03:08:38.278Z,101846.97
2023-01-25T03:11:05.862Z,101843.47
2023-01-25T03:13:33.023Z,101842.63
2023-01-25T03:16:05.179Z,101821.81
2023-01-25T03:18:31.980Z,101821.28
2023-01-25T03:21:05.367Z,101822.09
2023-01-25T03:23:31.933Z,101824.66
2023-01-25T03:26:19.283Z,101821.25
2023-01-25T03:28:46.972Z,101821.09
2023-01-25T03:31:15.155Z,101820.06
2023-01-25T03:33:42.839Z,101815.16
2023-01-25T03:36:10.389Z,101812.63
2023-01-25T03:38:37.096Z,101806.38
2023-01-25T03:41:04.137Z,101808.38
2023-01-25T03:43:30.865Z,101812.41
2023-01-25T03:45:59.793Z,101810.88
2023-01-25T03:48:27.336Z,101806.13
2023-01-25T03:50:56.108Z,101802.25
2023-01-25T03:53:30.040Z,101791.00
2023-01-25T03:56:11.735Z,101802.69
2023-01-25T03:58:39.574Z,101807.81
2023-01-25T04:01:07.581Z,101794.94
2023-01-25T04:03:34.457Z,101786.06
2023-01-25T04:06:01.521Z,101789.75
2023-01-25T04:08:28.499Z,101800.41
2023-01-25T04:11:16.258Z,101783.94
2023-01-25T04:13:42.795Z,101797.03
2023-01-25T04:16:12.584Z,101786.56
2023-01-25T04:18:40.121Z,101785.66
2023-01-25T04:21:06.791Z,101785.25
2023-01-25T04:23:33.341Z,101790.53
2023-01-25T04:26:02.421Z,101784.66
2023-01-25T04:28:29.107Z,101782.91
2023-01-25T04:30:56.455Z,101781.81
2023-01-25T04:33:23.541Z,101785.22
2023-01-25T04:35:50.111Z,101783.41
2023-01-25T04:38:16.714Z,101775.66
2023-01-25T04:40:43.962Z,101770.63
2023-01-25T04:43:12.607Z,101776.88
2023-01-25T04:45:39.250Z,101775.44
2023-01-25T04:48:10.064Z,101770.94
2023-01-25T04:50:37.995Z,101773.44
2023-01-25T04:53:06.310Z,101763.00
2023-01-25T04:55:34.273Z,101767.06
2023-01-25T04:58:01.403Z,101776.72
2023-01-25T05:00:29.041Z,101768.13
2023-01-25T05:02:55.714Z,101773.50
2023-01-25T05:05:22.237Z,101770.13
2023-01-25T05:07:48.848Z,101772.94
2023-01-25T05:10:15.371Z,101775.50
2023-01-25T05:12:41.989Z,101776.53
2023-01-25T05:15:09.072Z,101767.47
2023-01-25T05:17:35.955Z,101772.84
2023-01-25T05:20:03.045Z,101770.22
2023-01-25T05:22:29.538Z,101768.41
2023-01-25T05:24:56.139Z,101758.09
2023-01-25T05:27:22.792Z,101762.44
2023-01-25T05:29:49.238Z,101758.31
2023-01-25T05:32:21.176Z,101765.56
2023-01-25T05:34:48.462Z,101757.19
2023-01-25T05:37:17.719Z,101755.44
2023-01-25T05:39:44.718Z,101763.25
2023-01-25T05:42:13.649Z,101758.50
2023-01-25T05:44:40.253Z,101765.84
2023-01-25T05:47:07.725Z,101749.53
2023-01-25T05:49:34.219Z,101746.91
2023-01-25T05:52:00.720Z,101753.03
2023-01-25T05:54:27.337Z,101749.44
2023-01-25T05:56:53.767Z,101755.34
2023-01-25T05:59:20.236Z,101743.41
2023-01-25T06:01:47.135Z,101731.28
2023-01-25T06:04:18.331Z,101745.91
2023-01-25T06:06:44.908Z,101733.06
2023-01-25T06:09:14.775Z,101735.59
2023-01-25T06:11:44.449Z,101731.28
2023-01-25T06:14:10.928Z,101725.81
2023-01-25T06:16:37.635Z,101728.22
2023-01-25T06:19:08.245Z,101732.22
2023-01-25T06:21:37.137Z,101726.47
2023-01-25T06:24:05.026Z,101730.84
2023-01-25T06:26:31.618Z,101728.09
2023-01-25T06:28:58.145Z,101731.94
2023-01-25T06:31:25.073Z,101733.31
2023-01-25T06:33:52.199Z,101735.75
2023-01-25T06:36:20.389Z,101735.19
2023-01-25T06:38:51.262Z,101735.25
2023-01-25T06:41:18.362Z,101729.44
2023-01-25T06:43:45.302Z,101729.00
2023-01-25T06:46:12.833Z,101722.91
2023-01-25T06:48:39.690Z,101726.50
2023-01-25T06:51:08.257Z,101723.63
2023-01-25T06:53:37.393Z,101722.13
2023-01-25T06:56:12.022Z,101716.31
2023-01-25T06:58:39.223Z,101716.94
2023-01-25T07:01:16.899Z,101716.31
2023-01-25T07:03:43.686Z,101715.16
2023-01-25T07:06:11.381Z,101714.50
2023-01-25T07:08:38.195Z,101711.91
2023-01-25T07:11:09.581Z,101708.41
2023-01-25T07:13:36.107Z,101703.13
2023-01-25T07:16:05.181Z,101697.63
2023-01-25T07:18:32.681Z,101700.47
2023-01-25T07:21:07.012Z,101697.72
2023-01-25T07:23:34.730Z,101705.28
2023-01-25T07:26:01.702Z,101703.69
2023-01-25T07:28:28.709Z,101701.59
2023-01-25T07:30:55.880Z,101692.16
2023-01-25T07:33:22.478Z,101690.22
2023-01-25T07:35:50.982Z,101696.13
2023-01-25T07:38:18.052Z,101689.69
2023-01-25T07:40:46.349Z,101689.09
2023-01-25T07:43:13.345Z,101689.16
2023-01-25T07:45:40.106Z,101692.81
2023-01-25T07:48:10.128Z,101683.63
2023-01-25T07:50:36.741Z,101682.47
2023-01-25T07:53:03.435Z,101683.31
2023-01-25T07:55:31.192Z,101681.38
2023-01-25T07:57:57.708Z,101690.13
2023-01-25T08:00:25.137Z,101689.28
2023-01-25T08:02:52.286Z,101686.66
2023-01-25T08:05:19.475Z,101687.59
2023-01-25T08:07:47.041Z,101682.50
2023-01-25T08:10:14.253Z,101679.03
2023-01-25T08:12:45.664Z,101677.03
2023-01-25T08:15:13.903Z,101684.59
2023-01-25T08:17:40.664Z,101681.59
2023-01-25T08:20:08.041Z,101679.38
2023-01-25T08:22:34.806Z,101675.19
2023-01-25T08:25:01.673Z,101680.53
2023-01-25T08:27:28.929Z,101682.19
2023-01-25T08:29:55.694Z,101676.63
2023-01-25T08:32:22.333Z,101671.44
2023-01-25T08:34:48.825Z,101672.75
2023-01-25T08:37:15.450Z,101665.94
2023-01-25T08:39:42.621Z,101667.59
2023-01-25T08:42:09.143Z,101663.56
2023-01-25T08:44:35.958Z,101661.09
2023-01-25T08:47:02.486Z,101657.22
2023-01-25T08:49:31.063Z,101654.53
2023-01-25T08:51:58.494Z,101657.38
2023-01-25T08:54:25.220Z,101653.03
2023-01-25T08:56:52.035Z,101658.38
2023-01-25T08:59:18.612Z,101655.97
2023-01-25T09:01:45.302Z,101650.56
2023-01-25T09:04:11.851Z,101648.56
2023-01-25T09:06:38.424Z,101648.66
2023-01-25T09:09:05.196Z,101651.69
2023-01-25T09:11:33.743Z,101648.44
2023-01-25T09:14:00.219Z,101650.22
2023-01-25T09:16:30.726Z,101643.13
2023-01-25T09:18:59.335Z,101639.84
2023-01-25T09:21:26.142Z,101641.47
2023-01-25T09:24:08.914Z,101635.31
2023-01-25T09:26:39.240Z,101641.56
2023-01-25T09:29:08.030Z,101631.94
2023-01-25T09:31:35.454Z,101637.09
2023-01-25T09:34:02.620Z,101630.28
2023-01-25T09:36:29.814Z,101621.06
2023-01-25T09:38:57.115Z,101620.47
2023-01-25T09:41:51.888Z,101608.59
2023-01-25T09:44:44.858Z,101601.59
2023-01-25T09:47:25.791Z,101602.78
2023-01-25T09:50:11.229Z,101594.56
2023-01-25T09:52:57.377Z,101597.06
2023-01-25T09:55:26.185Z,101591.72
2023-01-25T09:57:53.999Z,101591.66
2023-01-25T10:00:55.097Z,101595.13
2023-01-25T10:03:24.950Z,101588.41
2023-01-25T10:05:54.186Z,101590.59
2023-01-25T10:08:49.814Z,101586.00
2023-01-25T10:11:28.536Z,101586.00
2023-01-25T10:13:56.487Z,101577.97
2023-01-25T10:16:50.173Z,101576.91
2023-01-25T10:19:35.605Z,101576.59
2023-01-25T10:22:11.940Z,101569.06
2023-01-25T10:24:50.958Z,101572.56
2023-01-25T10:27:53.306Z,101562.72
2023-01-25T10:30:31.891Z,101558.75
2023-01-25T10:33:01.375Z,101564.28
2023-01-25T10:35:38.514Z,101548.50
2023-01-25T10:38:38.014Z,101539.78
2023-01-25T10:41:10.555Z,101533.88
2023-01-25T10:43:37.078Z,101529.94
2023-01-25T10:46:03.710Z,101528.88
2023-01-25T10:48:34.606Z,101523.00
2023-01-25T10:51:01.312Z,101518.72
2023-01-25T10:53:31.838Z,101521.84
2023-01-25T10:56:00.451Z,101517.31
2023-01-25T10:58:32.564Z,101516.56
2023-01-25T11:00:59.861Z,101519.47
2023-01-25T11:03:34.775Z,101519.25
2023-01-25T11:06:02.224Z,101517.44
2023-01-25T11:08:31.338Z,101507.41
2023-01-25T11:10:59.030Z,101509.06
2023-01-25T11:13:34.677Z,101497.22
2023-01-25T11:16:05.020Z,101495.50
2023-01-25T11:18:34.896Z,101486.50
2023-01-25T11:21:19.428Z,101484.53
2023-01-25T11:24:03.586Z,101478.59
2023-01-25T11:26:31.297Z,101467.28
2023-01-25T11:29:08.551Z,101461.28
2023-01-25T11:31:35.315Z,101475.94
2023-01-25T11:34:01.987Z,101470.09
2023-01-25T11:36:33.775Z,101457.78
2023-01-25T11:39:05.473Z,101462.16
2023-01-25T11:41:43.285Z,101472.88
2023-01-25T11:44:32.538Z,101458.31
2023-01-25T11:47:11.206Z,101460.81
2023-01-25T11:49:49.867Z,101463.66
2023-01-25T11:52:48.562Z,101452.63
2023-01-25T11:55:40.041Z,101447.66
2023-01-25T11:58:55.002Z,101445.66
2023-01-25T12:01:28.166Z,101437.47
2023-01-25T12:04:08.005Z,101439.06
2023-01-25T12:06:40.042Z,101434.84
2023-01-25T12:09:24.364Z,101422.59
2023-01-25T12:12:24.982Z,101416.06
2023-01-25T12:15:07.617Z,101406.94
2023-01-25T12:17:47.864Z,101417.03
2023-01-25T12:20:27.122Z,101409.41
2023-01-25T12:23:18.477Z,101402.09
2023-01-25T12:26:24.721Z,101394.06
2023-01-25T12:29:00.236Z,101395.97
2023-01-25T12:32:11.651Z,101382.84
2023-01-25T12:34:40.620Z,101381.63
2023-01-25T12:37:20.422Z,101379.41
2023-01-25T12:40:11.377Z,101385.06
2023-01-25T12:42:43.613Z,101384.91
2023-01-25T12:45:22.903Z,101389.66
2023-01-25T12:47:52.007Z,101392.84
2023-01-25T12:50:31.447Z,101381.19
2023-01-25T12:53:03.077Z,101386.31
2023-01-25T12:55:29.704Z,101385.81
2023-01-25T12:58:37.380Z,101382.72
2023-01-25T13:01:29.436Z,101388.47
2023-01-25T13:04:26.287Z,101382.16
2023-01-25T13:07:11.180Z,101378.56
2023-01-25T13:09:56.324Z,101376.63
2023-01-25T13:12:24.555Z,101380.34
2023-01-25T13:14:50.990Z,101365.56
2023-01-25T13:17:23.439Z,101362.91
2023-01-25T13:19:51.218Z,101354.06
2023-01-25T13:22:55.103Z,101346.50
2023-01-25T13:25:23.629Z,101349.84
2023-01-25T13:27:50.567Z,101347.94
2023-01-25T13:30:32.431Z,101348.00
2023-01-25T13:33:01.565Z,101334.84
2023-01-25T13:35:29.093Z,101334.28
2023-01-25T13:38:01.288Z,101328.81
2023-01-25T13:40:31.738Z,101327.53
2023-01-25T13:43:00.989Z,101331.13
2023-01-25T13:45:28.605Z,101324.41
2023-01-25T13:48:06.332Z,101329.19
2023-01-25T13:50:36.415Z,101315.53
2023-01-25T13:53:17.438Z,101299.06
2023-01-25T13:55:50.468Z,101306.38
2023-01-25T13:58:26.951Z,101306.97
2023-01-25T14:00:58.710Z,101292.09
2023-01-25T14:03:41.052Z,101292.53
2023-01-25T14:06:15.921Z,101290.19
2023-01-25T14:08:43.580Z,101296.63
2023-01-25T14:11:10.093Z,101289.91
2023-01-25T14:13:36.637Z,101285.69
2023-01-25T14:16:06.773Z,101290.25
2023-01-25T14:18:35.242Z,101294.56
2023-01-25T14:21:19.118Z,101288.81
2023-01-25T14:23:46.813Z,101274.00
2023-01-25T14:26:20.991Z,101278.75
2023-01-25T14:28:59.318Z,101270.06
2023-01-25T14:31:33.187Z,101275.44
2023-01-25T14:33:59.784Z,101263.97
2023-01-25T14:36:31.366Z,101262.59
2023-01-25T14:38:58.172Z,101260.09
2023-01-25T14:41:40.195Z,101267.66
2023-01-25T14:44:15.289Z,101256.41
2023-01-25T14:46:42.029Z,101253.50
2023-01-25T14:49:11.919Z,101249.72
2023-01-25T14:51:48.468Z,101249.72
2023-01-25T14:54:35.816Z,101241.94
2023-01-25T14:57:05.083Z,101246.00
2023-01-25T14:59:34.314Z,101234.69
2023-01-25T15:02:19.617Z,101237.47
2023-01-25T15:05:10.778Z,101231.06
2023-01-25T15:07:48.084Z,101223.25
2023-01-25T15:10:23.174Z,101218.88
2023-01-25T15:13:18.119Z,101217.72
2023-01-25T15:15:52.526Z,101207.75
2023-01-25T15:18:44.252Z,101217.06
2023-01-25T15:21:12.948Z,101220.59
2023-01-25T15:23:42.224Z,101213.66
2023-01-25T15:26:19.606Z,101211.31
2023-01-25T15:28:46.724Z,101204.63
2023-01-25T15:31:21.618Z,101198.84
2023-01-25T15:33:48.277Z,101198.53
2023-01-25T15:36:16.090Z,101195.22
2023-01-25T15:38:42.776Z,101196.34
2023-01-25T15:41:10.351Z,101190.31
2023-01-25T15:43:37.145Z,101189.78
2023-01-25T15:46:04.816Z,101189.94
2023-01-25T15:48:36.605Z,101189.84
2023-01-25T15:51:03.550Z,101186.06
2023-01-25T15:53:30.495Z,101178.28
2023-01-25T15:56:05.795Z,101186.38
2023-01-25T15:58:44.995Z,101179.16
2023-01-25T16:01:11.809Z,101181.34
2023-01-25T16:03:41.624Z,101180.34
2023-01-25T16:06:41.842Z,101174.56
2023-01-25T16:09:29.871Z,101176.63
2023-01-25T16:11:58.624Z,101176.13
2023-01-25T16:14:29.993Z,101171.97
2023-01-25T16:16:58.612Z,101171.28
2023-01-25T16:19:25.206Z,101167.56
2023-01-25T16:21:51.804Z,101162.69
2023-01-25T16:24:18.817Z,101162.50
2023-01-25T16:26:49.297Z,101158.13
2023-01-25T16:29:15.852Z,101152.91
2023-01-25T16:31:44.816Z,101155.31
2023-01-25T16:34:11.895Z,101153.13
2023-01-25T16:36:39.661Z,101152.72
2023-01-25T16:39:10.096Z,101145.91
2023-01-25T16:41:37.085Z,101148.19
2023-01-25T16:44:03.635Z,101146.47
2023-01-25T16:46:30.367Z,101138.50
2023-01-25T16:48:57.459Z,101139.56
2023-01-25T16:51:26.588Z,101136.91
2023-01-25T16:53:55.587Z,101128.19
2023-01-25T16:56:30.339Z,101124.25
2023-01-25T16:59:00.152Z,101117.34
2023-01-25T17:01:27.590Z,101110.91
2023-01-25T17:03:54.909Z,101111.94
2023-01-25T17:06:25.131Z,101107.38
2023-01-25T17:08:52.745Z,101096.88
2023-01-25T17:11:19.355Z,101106.16
2023-01-25T17:13:50.247Z,101101.91
2023-01-25T17:16:20.840Z,101100.06
2023-01-25T17:18:47.998Z,101096.84
2023-01-25T17:21:15.129Z,101094.78
2023-01-25T17:23:42.064Z,101091.16
2023-01-25T17:26:12.775Z,101090.66
2023-01-25T17:28:39.769Z,101089.41
2023-01-25T17:31:16.900Z,101087.41
2023-01-25T17:33:44.022Z,101083.53
2023-01-25T17:36:10.742Z,101073.22
2023-01-25T17:38:37.213Z,101077.84
2023-01-25T17:41:08.994Z,101077.94
2023-01-25T17:43:36.128Z,101075.78
2023-01-25T17:46:13.829Z,101079.75
2023-01-25T17:48:40.696Z,101078.91
2023-01-25T17:51:07.303Z,101067.16
2023-01-25T17:53:34.056Z,101071.09
2023-01-25T17:56:04.572Z,101065.66
2023-01-25T17:58:32.024Z,101070.34
2023-01-25T18:01:12.569Z,101051.03
2023-01-25T18:03:40.019Z,101049.28
2023-01-25T18:06:09.205Z,101047.72
2023-01-25T18:08:40.589Z,101050.22
2023-01-25T18:11:12.015Z,101049.91
2023-01-25T18:13:53.591Z,101045.84
2023-01-25T18:16:24.113Z,101046.97
2023-01-25T18:18:52.263Z,101042.66
2023-01-25T18:21:27.051Z,101045.44
2023-01-25T18:24:01.865Z,101042.66
2023-01-25T18:26:30.782Z,101043.47
2023-01-25T18:29:40.587Z,101050.00
2023-01-25T18:32:07.441Z,101047.09
2023-01-25T18:34:34.081Z,101049.88
2023-01-25T18:37:00.647Z,101042.72
2023-01-25T18:39:28.167Z,101044.94
2023-01-25T18:41:54.921Z,101038.75
2023-01-25T18:44:21.427Z,101045.66
2023-01-25T18:46:48.048Z,101042.16
2023-01-25T18:49:14.633Z,101025.59
2023-01-25T18:52:01.889Z,101026.56
2023-01-25T18:54:27.890Z,101035.03
2023-01-25T18:56:55.123Z,101027.22
2023-01-25T18:59:21.655Z,101040.16
2023-01-25T19:01:48.249Z,101040.94
2023-01-25T19:04:14.896Z,101032.72
2023-01-25T19:06:41.426Z,101039.81
2023-01-25T19:09:08.023Z,101034.75
2023-01-25T19:11:34.497Z,101037.31
2023-01-25T19:14:01.701Z,101031.78
2023-01-25T19:16:28.269Z,101027.66
2023-01-25T19:18:55.285Z,101023.59
2023-01-25T19:21:26.476Z,101017.59
2023-01-25T19:23:53.898Z,101010.91
2023-01-25T19:26:22.408Z,101007.06
2023-01-25T19:28:49.085Z,101003.66
2023-01-25T19:31:23.775Z,100996.00
2023-01-25T19:33:58.020Z,101001.16
2023-01-25T19:36:24.838Z,100996.41
2023-01-25T19:38:51.518Z,100992.69
2023-01-25T19:41:22.588Z,100992.03
2023-01-25T19:43:56.485Z,100992.16
2023-01-25T19:46:25.488Z,100995.63
2023-01-25T19:48:52.946Z,100990.75
2023-01-25T19:51:30.447Z,100993.25
2023-01-25T19:54:03.245Z,100983.38
2023-01-25T19:56:34.648Z,100983.91
2023-01-25T19:59:02.854Z,100970.03
2023-01-25T20:01:29.723Z,100966.75
2023-01-25T20:04:02.211Z,100964.66
2023-01-25T20:06:29.271Z,100953.53
2023-01-25T20:08:56.293Z,100950.50
2023-01-25T20:11:30.869Z,100948.09
2023-01-25T20:13:59.751Z,100946.47
2023-01-25T20:16:28.049Z,100949.97
2023-01-25T20:18:56.191Z,100946.03
2023-01-25T20:21:24.051Z,100943.63
2023-01-25T20:23:57.085Z,100933.84
2023-01-25T20:26:32.622Z,100934.13
2023-01-25T20:28:59.963Z,100935.88
2023-01-25T20:31:34.843Z,100940.84
2023-01-25T20:34:07.118Z,100930.34
2023-01-25T20:36:35.020Z,100921.84
2023-01-25T20:39:01.699Z,100927.50
2023-01-25T20:41:28.298Z,100931.25
2023-01-25T20:44:04.534Z,100917.34
2023-01-25T20:46:33.941Z,100926.00
2023-01-25T20:49:01.796Z,100921.75
2023-01-25T20:51:28.750Z,100921.19
2023-01-25T20:53:55.906Z,100912.22
2023-01-25T20:56:22.831Z,100913.25
2023-01-25T20:58:52.968Z,100912.22
2023-01-25T21:01:20.325Z,100916.81
2023-01-25T21:03:47.925Z,100919.72
2023-01-25T21:06:15.035Z,100911.91
2023-01-25T21:08:41.917Z,100903.00
2023-01-25T21:11:09.186Z,100912.06
2023-01-25T21:13:36.023Z,100912.16
2023-01-25T21:16:07.106Z,100914.59
2023-01-25T21:18:38.920Z,100913.75
2023-01-25T21:21:14.462Z,100896.06
2023-01-25T21:23:44.797Z,100907.56
2023-01-25T21:26:25.847Z,100905.56
2023-01-25T21:28:54.641Z,100896.94
2023-01-25T21:31:23.069Z,100896.56
2023-01-25T21:33:49.679Z,100890.63
2023-01-25T21:36:17.213Z,100886.28
2023-01-25T21:38:46.037Z,100885.81
2023-01-25T21:41:21.700Z,100888.78
2023-01-25T21:44:07.569Z,100893.78
2023-01-25T21:46:34.697Z,100892.72
2023-01-25T21:49:22.124Z,100884.66
2023-01-25T21:51:51.024Z,100893.22
2023-01-25T21:54:25.335Z,100889.44
2023-01-25T21:56:53.981Z,100882.88
2023-01-25T21:59:20.914Z,100880.00
2023-01-25T22:01:48.334Z,100890.06
2023-01-25T22:04:16.749Z,100884.94
2023-01-25T22:06:43.624Z,100874.88
2023-01-25T22:09:12.790Z,100880.84
2023-01-25T22:11:39.417Z,100881.81
2023-01-25T22:14:06.291Z,100880.75
2023-01-25T22:16:32.768Z,100880.09
2023-01-25T22:19:00.176Z,100873.03
2023-01-25T22:21:30.691Z,100871.09
2023-01-25T22:23:59.351Z,100866.66
2023-01-25T22:26:27.063Z,100866.75
2023-01-25T22:28:58.423Z,100875.25
2023-01-25T22:31:27.514Z,100870.63
2023-01-25T22:33:55.263Z,100862.88
2023-01-25T22:36:23.377Z,100858.03
2023-01-25T22:38:50.169Z,100860.59
2023-01-25T22:41:21.629Z,100862.41
2023-01-25T22:43:48.297Z,100853.88
2023-01-25T22:46:20.584Z,100850.13
2023-01-25T22:48:47.901Z,100845.09
2023-01-25T22:51:15.295Z,100852.13
2023-01-25T22:53:41.862Z,100850.31
2023-01-25T22:56:11.981Z,100843.28
2023-01-25T22:58:39.805Z,100845.66
2023-01-25T23:01:11.553Z,100844.97
2023-01-25T23:03:39.413Z,100841.31
2023-01-25T23:06:12.950Z,100836.38
2023-01-25T23:08:40.100Z,100830.25
2023-01-25T23:11:10.472Z,100821.84
2023-01-25T23:13:37.195Z,100819.63
2023-01-25T23:16:04.903Z,100818.72
2023-01-25T23:18:50.292Z,100809.34
2023-01-25T23:21:18.906Z,100803.81
2023-01-25T23:23:45.827Z,100798.41
2023-01-25T23:26:12.961Z,100801.22
2023-01-25T23:28:39.577Z,100786.81
2023-01-25T23:31:24.439Z,100787.38
2023-01-25T23:33:52.205Z,100782.53
2023-01-25T23:36:26.959Z,100781.88
2023-01-25T23:38:53.851Z,100786.16
2023-01-25T23:41:21.830Z,100773.56
2023-01-25T23:43:48.973Z,100770.91
2023-01-25T23:46:16.858Z,100775.28
2023-01-25T23:48:43.989Z,100766.31
2023-01-25T23:51:12.550Z,100760.06
2023-01-25T23:53:39.673Z,100764.88
2023-01-25T23:56:14.057Z,100775.34
2023-01-25T23:58:40.726Z,100768.75
